sensor_id;sensor_type;location;lat;lon;timestamp;temperature;humidity
7900;DHT22;3995;50.856;4.404;2023-05-18T00:00:32;18.20;40.90
7900;DHT22;3995;50.856;4.404;2023-05-18T00:02:59;18.20;40.90
7900;DHT22;3995;50.856;4.404;2023-05-18T00:05:28;18.20;41.00
7900;DHT22;3995;50.856;4.404;2023-05-18T00:08:00;18.20;40.90
7900;DHT22;3995;50.856;4.404;2023-05-18T00:10:27;18.10;40.90
7900;DHT22;3995;50.856;4.404;2023-05-18T00:12:55;18.10;41.00
7900;DHT22;3995;50.856;4.404;2023-05-18T00:15:22;18.10;41.00
7900;DHT22;3995;50.856;4.404;2023-05-18T00:17:50;18.10;41.10
7900;DHT22;3995;50.856;4.404;2023-05-18T00:20:18;18.00;41.00
7900;DHT22;3995;50.856;4.404;2023-05-18T00:22:46;18.00;41.10
7900;DHT22;3995;50.856;4.404;2023-05-18T00:25:17;17.90;41.20
7900;DHT22;3995;50.856;4.404;2023-05-18T00:27:44;17.90;41.30
7900;DHT22;3995;50.856;4.404;2023-05-18T00:30:14;17.90;41.30
7900;DHT22;3995;50.856;4.404;2023-05-18T00:32:41;17.90;41.30
7900;DHT22;3995;50.856;4.404;2023-05-18T00:35:09;17.80;41.30
7900;DHT22;3995;50.856;4.404;2023-05-18T00:37:37;17.80;41.40
7900;DHT22;3995;50.856;4.404;2023-05-18T00:40:05;17.80;41.40
7900;DHT22;3995;50.856;4.404;2023-05-18T00:42:35;17.80;41.40
7900;DHT22;3995;50.856;4.404;2023-05-18T00:45:02;17.80;41.60
7900;DHT22;3995;50.856;4.404;2023-05-18T00:47:29;17.70;41.50
7900;DHT22;3995;50.856;4.404;2023-05-18T00:49:57;17.70;41.40
7900;DHT22;3995;50.856;4.404;2023-05-18T00:52:24;17.70;41.40
7900;DHT22;3995;50.856;4.404;2023-05-18T00:54:53;17.70;41.50
7900;DHT22;3995;50.856;4.404;2023-05-18T00:57:22;17.60;41.60
7900;DHT22;3995;50.856;4.404;2023-05-18T00:59:52;17.60;41.60
7900;DHT22;3995;50.856;4.404;2023-05-18T01:02:21;17.60;41.60
7900;DHT22;3995;50.856;4.404;2023-05-18T01:04:49;17.60;41.70
7900;DHT22;3995;50.856;4.404;2023-05-18T01:07:17;17.60;41.70
7900;DHT22;3995;50.856;4.404;2023-05-18T01:09:47;17.60;41.70
7900;DHT22;3995;50.856;4.404;2023-05-18T01:12:19;17.60;41.80
7900;DHT22;3995;50.856;4.404;2023-05-18T01:14:50;17.50;41.80
7900;DHT22;3995;50.856;4.404;2023-05-18T01:17:25;17.50;41.90
7900;DHT22;3995;50.856;4.404;2023-05-18T01:20:09;17.50;41.90
7900;DHT22;3995;50.856;4.404;2023-05-18T01:25:46;17.50;42.10
7900;DHT22;3995;50.856;4.404;2023-05-18T01:28:17;17.40;42.30
7900;DHT22;3995;50.856;4.404;2023-05-18T01:30:45;17.40;42.20
7900;DHT22;3995;50.856;4.404;2023-05-18T01:33:13;17.40;42.20
7900;DHT22;3995;50.856;4.404;2023-05-18T01:35:41;17.40;42.20
7900;DHT22;3995;50.856;4.404;2023-05-18T01:38:13;17.40;42.20
7900;DHT22;3995;50.856;4.404;2023-05-18T01:40:47;17.40;42.20
7900;DHT22;3995;50.856;4.404;2023-05-18T01:43:21;17.40;42.20
7900;DHT22;3995;50.856;4.404;2023-05-18T01:45:51;17.30;42.20
7900;DHT22;3995;50.856;4.404;2023-05-18T01:48:23;17.30;42.30
7900;DHT22;3995;50.856;4.404;2023-05-18T01:50:55;17.20;42.30
7900;DHT22;3995;50.856;4.404;2023-05-18T01:53:26;17.20;42.30
7900;DHT22;3995;50.856;4.404;2023-05-18T01:55:55;17.20;42.40
7900;DHT22;3995;50.856;4.404;2023-05-18T01:58:25;17.20;42.50
7900;DHT22;3995;50.856;4.404;2023-05-18T02:00:53;17.20;42.50
7900;DHT22;3995;50.856;4.404;2023-05-18T02:03:21;17.10;42.50
7900;DHT22;3995;50.856;4.404;2023-05-18T02:05:48;17.10;42.60
7900;DHT22;3995;50.856;4.404;2023-05-18T02:08:16;17.10;42.60
7900;DHT22;3995;50.856;4.404;2023-05-18T02:10:43;17.10;42.50
7900;DHT22;3995;50.856;4.404;2023-05-18T02:13:11;17.20;42.60
7900;DHT22;3995;50.856;4.404;2023-05-18T02:15:40;17.20;42.60
7900;DHT22;3995;50.856;4.404;2023-05-18T02:18:09;17.10;42.50
7900;DHT22;3995;50.856;4.404;2023-05-18T02:20:36;17.10;42.50
7900;DHT22;3995;50.856;4.404;2023-05-18T02:23:05;17.10;42.60
7900;DHT22;3995;50.856;4.404;2023-05-18T02:25:32;17.00;42.50
7900;DHT22;3995;50.856;4.404;2023-05-18T02:28:00;17.00;42.60
7900;DHT22;3995;50.856;4.404;2023-05-18T02:30:27;17.00;42.70
7900;DHT22;3995;50.856;4.404;2023-05-18T02:32:59;17.00;42.70
7900;DHT22;3995;50.856;4.404;2023-05-18T02:35:29;17.00;42.70
7900;DHT22;3995;50.856;4.404;2023-05-18T02:37:56;17.00;42.80
7900;DHT22;3995;50.856;4.404;2023-05-18T02:40:24;16.90;42.70
7900;DHT22;3995;50.856;4.404;2023-05-18T02:42:52;16.90;42.80
7900;DHT22;3995;50.856;4.404;2023-05-18T02:45:19;16.90;42.80
7900;DHT22;3995;50.856;4.404;2023-05-18T02:47:47;16.90;42.90
7900;DHT22;3995;50.856;4.404;2023-05-18T02:50:16;16.90;42.90
7900;DHT22;3995;50.856;4.404;2023-05-18T02:52:44;16.90;42.90
7900;DHT22;3995;50.856;4.404;2023-05-18T02:55:14;16.80;42.80
7900;DHT22;3995;50.856;4.404;2023-05-18T02:57:42;16.80;42.90
7900;DHT22;3995;50.856;4.404;2023-05-18T03:00:12;16.80;43.00
7900;DHT22;3995;50.856;4.404;2023-05-18T03:02:41;16.80;43.00
7900;DHT22;3995;50.856;4.404;2023-05-18T03:05:09;16.80;43.00
7900;DHT22;3995;50.856;4.404;2023-05-18T03:07:38;16.80;43.10
7900;DHT22;3995;50.856;4.404;2023-05-18T03:10:07;16.80;43.10
7900;DHT22;3995;50.856;4.404;2023-05-18T03:12:35;16.70;43.00
7900;DHT22;3995;50.856;4.404;2023-05-18T03:15:03;16.70;43.00
7900;DHT22;3995;50.856;4.404;2023-05-18T03:17:30;16.70;43.00
7900;DHT22;3995;50.856;4.404;2023-05-18T03:19:58;16.70;43.20
7900;DHT22;3995;50.856;4.404;2023-05-18T03:22:28;16.60;43.10
7900;DHT22;3995;50.856;4.404;2023-05-18T03:24:58;16.60;43.20
7900;DHT22;3995;50.856;4.404;2023-05-18T03:27:27;16.60;43.30
7900;DHT22;3995;50.856;4.404;2023-05-18T03:29:54;16.50;43.30
7900;DHT22;3995;50.856;4.404;2023-05-18T03:32:22;16.50;43.30
7900;DHT22;3995;50.856;4.404;2023-05-18T03:34:50;16.50;43.30
7900;DHT22;3995;50.856;4.404;2023-05-18T03:37:19;16.50;43.30
7900;DHT22;3995;50.856;4.404;2023-05-18T03:39:46;16.50;43.40
7900;DHT22;3995;50.856;4.404;2023-05-18T03:42:16;16.50;43.40
7900;DHT22;3995;50.856;4.404;2023-05-18T03:44:43;16.40;43.40
7900;DHT22;3995;50.856;4.404;2023-05-18T03:47:10;16.40;43.50
7900;DHT22;3995;50.856;4.404;2023-05-18T03:49:38;16.40;43.50
7900;DHT22;3995;50.856;4.404;2023-05-18T03:52:06;16.40;43.60
7900;DHT22;3995;50.856;4.404;2023-05-18T03:54:33;16.30;43.50
7900;DHT22;3995;50.856;4.404;2023-05-18T03:57:01;16.30;43.60
7900;DHT22;3995;50.856;4.404;2023-05-18T03:59:30;16.30;43.60
7900;DHT22;3995;50.856;4.404;2023-05-18T04:01:57;16.30;43.60
7900;DHT22;3995;50.856;4.404;2023-05-18T04:04:24;16.30;43.70
7900;DHT22;3995;50.856;4.404;2023-05-18T04:06:52;16.20;43.70
7900;DHT22;3995;50.856;4.404;2023-05-18T04:09:19;16.20;43.70
7900;DHT22;3995;50.856;4.404;2023-05-18T04:11:48;16.20;43.70
7900;DHT22;3995;50.856;4.404;2023-05-18T04:14:15;16.20;43.80
7900;DHT22;3995;50.856;4.404;2023-05-18T04:16:46;16.20;43.80
7900;DHT22;3995;50.856;4.404;2023-05-18T04:19:14;16.20;43.80
7900;DHT22;3995;50.856;4.404;2023-05-18T04:21:41;16.20;43.90
7900;DHT22;3995;50.856;4.404;2023-05-18T04:24:11;16.20;43.90
7900;DHT22;3995;50.856;4.404;2023-05-18T04:26:40;16.20;43.90
7900;DHT22;3995;50.856;4.404;2023-05-18T04:29:07;16.20;43.90
7900;DHT22;3995;50.856;4.404;2023-05-18T04:31:38;16.20;43.90
7900;DHT22;3995;50.856;4.404;2023-05-18T04:34:08;16.20;43.90
7900;DHT22;3995;50.856;4.404;2023-05-18T04:36:37;16.20;43.90
7900;DHT22;3995;50.856;4.404;2023-05-18T04:39:08;16.20;43.90
7900;DHT22;3995;50.856;4.404;2023-05-18T04:41:35;16.20;43.90
7900;DHT22;3995;50.856;4.404;2023-05-18T04:44:03;16.20;43.90
7900;DHT22;3995;50.856;4.404;2023-05-18T04:46:30;16.20;43.90
7900;DHT22;3995;50.856;4.404;2023-05-18T04:48:59;16.20;43.80
7900;DHT22;3995;50.856;4.404;2023-05-18T04:51:28;16.20;43.80
7900;DHT22;3995;50.856;4.404;2023-05-18T04:53:55;16.20;43.90
7900;DHT22;3995;50.856;4.404;2023-05-18T04:56:22;16.20;44.00
7900;DHT22;3995;50.856;4.404;2023-05-18T04:58:49;16.20;44.00
7900;DHT22;3995;50.856;4.404;2023-05-18T05:01:17;16.20;44.00
7900;DHT22;3995;50.856;4.404;2023-05-18T05:03:44;16.30;44.00
7900;DHT22;3995;50.856;4.404;2023-05-18T05:06:12;16.30;43.90
7900;DHT22;3995;50.856;4.404;2023-05-18T05:08:42;16.30;44.00
7900;DHT22;3995;50.856;4.404;2023-05-18T05:11:09;16.30;43.90
7900;DHT22;3995;50.856;4.404;2023-05-18T05:13:37;16.30;44.50
7900;DHT22;3995;50.856;4.404;2023-05-18T05:16:05;16.30;43.90
7900;DHT22;3995;50.856;4.404;2023-05-18T05:18:32;16.30;43.90
7900;DHT22;3995;50.856;4.404;2023-05-18T05:21:00;16.30;43.90
7900;DHT22;3995;50.856;4.404;2023-05-18T05:23:27;16.20;43.90
7900;DHT22;3995;50.856;4.404;2023-05-18T05:25:57;16.20;43.90
7900;DHT22;3995;50.856;4.404;2023-05-18T05:28:24;16.20;43.90
7900;DHT22;3995;50.856;4.404;2023-05-18T05:30:51;16.20;44.00
7900;DHT22;3995;50.856;4.404;2023-05-18T05:33:19;16.20;44.10
7900;DHT22;3995;50.856;4.404;2023-05-18T05:35:46;16.20;44.10
7900;DHT22;3995;50.856;4.404;2023-05-18T05:38:14;16.20;44.10
7900;DHT22;3995;50.856;4.404;2023-05-18T05:40:41;16.20;44.10
7900;DHT22;3995;50.856;4.404;2023-05-18T05:43:10;16.20;44.00
7900;DHT22;3995;50.856;4.404;2023-05-18T05:45:38;16.20;44.00
7900;DHT22;3995;50.856;4.404;2023-05-18T05:48:07;16.20;44.00
7900;DHT22;3995;50.856;4.404;2023-05-18T05:50:35;16.20;43.90
7900;DHT22;3995;50.856;4.404;2023-05-18T05:53:02;16.20;44.00
7900;DHT22;3995;50.856;4.404;2023-05-18T05:55:30;16.20;43.90
7900;DHT22;3995;50.856;4.404;2023-05-18T05:57:57;16.20;43.90
7900;DHT22;3995;50.856;4.404;2023-05-18T06:00:26;16.20;43.80
7900;DHT22;3995;50.856;4.404;2023-05-18T06:02:54;16.20;43.80
7900;DHT22;3995;50.856;4.404;2023-05-18T06:05:23;16.20;43.80
7900;DHT22;3995;50.856;4.404;2023-05-18T06:07:51;16.20;43.80
7900;DHT22;3995;50.856;4.404;2023-05-18T06:10:18;16.20;43.90
7900;DHT22;3995;50.856;4.404;2023-05-18T06:12:45;16.20;44.00
7900;DHT22;3995;50.856;4.404;2023-05-18T06:15:12;16.20;44.10
7900;DHT22;3995;50.856;4.404;2023-05-18T06:17:41;16.20;43.90
7900;DHT22;3995;50.856;4.404;2023-05-18T06:20:11;16.20;43.80
7900;DHT22;3995;50.856;4.404;2023-05-18T06:22:39;16.20;43.90
7900;DHT22;3995;50.856;4.404;2023-05-18T06:25:07;16.20;43.90
7900;DHT22;3995;50.856;4.404;2023-05-18T06:27:35;16.20;43.90
7900;DHT22;3995;50.856;4.404;2023-05-18T06:30:04;16.20;43.90
7900;DHT22;3995;50.856;4.404;2023-05-18T06:32:32;16.10;43.90
7900;DHT22;3995;50.856;4.404;2023-05-18T06:35:03;16.10;43.90
7900;DHT22;3995;50.856;4.404;2023-05-18T06:37:32;16.20;44.00
7900;DHT22;3995;50.856;4.404;2023-05-18T06:39:59;16.20;44.10
7900;DHT22;3995;50.856;4.404;2023-05-18T06:42:28;16.20;44.20
7900;DHT22;3995;50.856;4.404;2023-05-18T06:44:56;16.20;44.20
7900;DHT22;3995;50.856;4.404;2023-05-18T06:47:24;16.20;44.10
7900;DHT22;3995;50.856;4.404;2023-05-18T06:49:51;16.20;43.90
7900;DHT22;3995;50.856;4.404;2023-05-18T06:52:19;16.20;43.90
7900;DHT22;3995;50.856;4.404;2023-05-18T06:54:47;16.20;44.10
7900;DHT22;3995;50.856;4.404;2023-05-18T06:57:15;16.20;44.10
7900;DHT22;3995;50.856;4.404;2023-05-18T06:59:42;16.20;44.20
7900;DHT22;3995;50.856;4.404;2023-05-18T07:02:10;16.20;44.20
7900;DHT22;3995;50.856;4.404;2023-05-18T07:04:37;16.20;44.30
7900;DHT22;3995;50.856;4.404;2023-05-18T07:07:04;16.20;44.40
7900;DHT22;3995;50.856;4.404;2023-05-18T07:09:34;16.10;44.40
7900;DHT22;3995;50.856;4.404;2023-05-18T07:12:01;16.20;44.60
7900;DHT22;3995;50.856;4.404;2023-05-18T07:14:29;16.10;44.50
7900;DHT22;3995;50.856;4.404;2023-05-18T07:16:56;16.10;44.50
7900;DHT22;3995;50.856;4.404;2023-05-18T07:19:24;16.10;44.50
7900;DHT22;3995;50.856;4.404;2023-05-18T07:21:52;16.10;44.50
7900;DHT22;3995;50.856;4.404;2023-05-18T07:24:21;16.20;44.70
7900;DHT22;3995;50.856;4.404;2023-05-18T07:26:51;16.20;44.70
7900;DHT22;3995;50.856;4.404;2023-05-18T07:29:21;16.20;44.90
7900;DHT22;3995;50.856;4.404;2023-05-18T07:31:48;16.20;45.00
7900;DHT22;3995;50.856;4.404;2023-05-18T07:34:16;16.20;45.00
7900;DHT22;3995;50.856;4.404;2023-05-18T07:36:43;16.20;45.00
7900;DHT22;3995;50.856;4.404;2023-05-18T07:39:11;16.20;45.10
7900;DHT22;3995;50.856;4.404;2023-05-18T07:41:43;16.20;45.10
7900;DHT22;3995;50.856;4.404;2023-05-18T07:44:13;16.30;45.10
7900;DHT22;3995;50.856;4.404;2023-05-18T07:46:41;16.30;45.10
7900;DHT22;3995;50.856;4.404;2023-05-18T07:49:08;16.30;45.00
7900;DHT22;3995;50.856;4.404;2023-05-18T07:51:36;16.30;44.90
7900;DHT22;3995;50.856;4.404;2023-05-18T07:54:04;16.40;45.10
7900;DHT22;3995;50.856;4.404;2023-05-18T07:56:32;16.40;45.10
7900;DHT22;3995;50.856;4.404;2023-05-18T07:59:00;16.40;44.90
7900;DHT22;3995;50.856;4.404;2023-05-18T08:01:29;16.40;45.00
7900;DHT22;3995;50.856;4.404;2023-05-18T08:03:56;16.50;45.10
7900;DHT22;3995;50.856;4.404;2023-05-18T08:06:24;16.50;45.10
7900;DHT22;3995;50.856;4.404;2023-05-18T08:08:52;16.50;45.10
7900;DHT22;3995;50.856;4.404;2023-05-18T08:11:21;16.60;45.20
7900;DHT22;3995;50.856;4.404;2023-05-18T08:13:49;16.60;45.20
7900;DHT22;3995;50.856;4.404;2023-05-18T08:16:16;16.60;45.20
7900;DHT22;3995;50.856;4.404;2023-05-18T08:18:45;16.60;45.20
7900;DHT22;3995;50.856;4.404;2023-05-18T08:21:13;16.70;45.20
7900;DHT22;3995;50.856;4.404;2023-05-18T08:23:41;16.70;45.10
7900;DHT22;3995;50.856;4.404;2023-05-18T08:26:08;16.70;45.10
7900;DHT22;3995;50.856;4.404;2023-05-18T08:28:37;16.70;45.10
7900;DHT22;3995;50.856;4.404;2023-05-18T08:31:04;16.70;45.00
7900;DHT22;3995;50.856;4.404;2023-05-18T08:33:32;16.70;45.20
7900;DHT22;3995;50.856;4.404;2023-05-18T08:36:02;16.80;45.30
7900;DHT22;3995;50.856;4.404;2023-05-18T08:38:29;16.80;45.30
7900;DHT22;3995;50.856;4.404;2023-05-18T08:41:02;16.80;45.20
7900;DHT22;3995;50.856;4.404;2023-05-18T08:43:32;16.90;45.20
7900;DHT22;3995;50.856;4.404;2023-05-18T08:46:05;16.80;45.10
7900;DHT22;3995;50.856;4.404;2023-05-18T08:48:34;16.90;45.10
7900;DHT22;3995;50.856;4.404;2023-05-18T08:51:05;16.90;45.00
7900;DHT22;3995;50.856;4.404;2023-05-18T08:53:37;16.90;44.90
7900;DHT22;3995;50.856;4.404;2023-05-18T08:56:05;16.90;44.70
7900;DHT22;3995;50.856;4.404;2023-05-18T08:58:41;16.90;44.80
7900;DHT22;3995;50.856;4.404;2023-05-18T09:01:10;17.00;45.00
7900;DHT22;3995;50.856;4.404;2023-05-18T09:03:38;17.00;45.00
7900;DHT22;3995;50.856;4.404;2023-05-18T09:06:08;17.00;44.90
7900;DHT22;3995;50.856;4.404;2023-05-18T09:08:36;17.00;44.90
7900;DHT22;3995;50.856;4.404;2023-05-18T09:11:05;17.10;44.60
7900;DHT22;3995;50.856;4.404;2023-05-18T09:13:33;17.10;44.40
7900;DHT22;3995;50.856;4.404;2023-05-18T09:16:00;17.10;44.30
7900;DHT22;3995;50.856;4.404;2023-05-18T09:18:28;17.10;44.50
7900;DHT22;3995;50.856;4.404;2023-05-18T09:20:56;17.10;44.60
7900;DHT22;3995;50.856;4.404;2023-05-18T09:23:26;17.20;44.60
7900;DHT22;3995;50.856;4.404;2023-05-18T09:25:53;17.20;44.30
7900;DHT22;3995;50.856;4.404;2023-05-18T09:28:25;17.20;44.20
7900;DHT22;3995;50.856;4.404;2023-05-18T09:30:53;17.30;44.30
7900;DHT22;3995;50.856;4.404;2023-05-18T09:33:21;17.30;44.20
7900;DHT22;3995;50.856;4.404;2023-05-18T09:35:50;17.30;44.10
7900;DHT22;3995;50.856;4.404;2023-05-18T09:38:21;17.30;44.70
7900;DHT22;3995;50.856;4.404;2023-05-18T09:40:50;17.30;44.10
7900;DHT22;3995;50.856;4.404;2023-05-18T09:43:17;17.40;44.10
7900;DHT22;3995;50.856;4.404;2023-05-18T09:45:45;17.40;44.00
7900;DHT22;3995;50.856;4.404;2023-05-18T09:48:13;17.40;43.80
7900;DHT22;3995;50.856;4.404;2023-05-18T09:50:42;17.50;43.50
7900;DHT22;3995;50.856;4.404;2023-05-18T09:53:12;17.50;42.20
7900;DHT22;3995;50.856;4.404;2023-05-18T09:55:44;17.50;41.60
7900;DHT22;3995;50.856;4.404;2023-05-18T09:58:13;17.50;41.70
7900;DHT22;3995;50.856;4.404;2023-05-18T10:00:41;17.50;41.90
7900;DHT22;3995;50.856;4.404;2023-05-18T10:03:16;17.50;41.90
7900;DHT22;3995;50.856;4.404;2023-05-18T10:05:44;17.60;41.80
7900;DHT22;3995;50.856;4.404;2023-05-18T10:08:12;17.60;42.00
7900;DHT22;3995;50.856;4.404;2023-05-18T10:10:43;17.70;42.30
7900;DHT22;3995;50.856;4.404;2023-05-18T10:13:16;17.70;42.50
7900;DHT22;3995;50.856;4.404;2023-05-18T10:15:49;17.80;43.30
7900;DHT22;3995;50.856;4.404;2023-05-18T10:18:20;17.80;42.80
7900;DHT22;3995;50.856;4.404;2023-05-18T10:20:50;17.80;42.50
7900;DHT22;3995;50.856;4.404;2023-05-18T10:23:19;17.90;42.50
7900;DHT22;3995;50.856;4.404;2023-05-18T10:25:48;18.00;41.90
7900;DHT22;3995;50.856;4.404;2023-05-18T10:28:20;18.10;41.80
7900;DHT22;3995;50.856;4.404;2023-05-18T10:30:52;18.20;41.90
7900;DHT22;3995;50.856;4.404;2023-05-18T10:33:21;18.30;41.90
7900;DHT22;3995;50.856;4.404;2023-05-18T10:35:50;18.40;41.80
7900;DHT22;3995;50.856;4.404;2023-05-18T10:38:19;18.50;41.40
7900;DHT22;3995;50.856;4.404;2023-05-18T10:40:48;18.60;40.90
7900;DHT22;3995;50.856;4.404;2023-05-18T10:43:22;18.70;40.50
7900;DHT22;3995;50.856;4.404;2023-05-18T10:45:53;18.80;40.30
7900;DHT22;3995;50.856;4.404;2023-05-18T10:48:21;18.90;40.30
7900;DHT22;3995;50.856;4.404;2023-05-18T10:50:51;19.00;40.30
7900;DHT22;3995;50.856;4.404;2023-05-18T10:53:21;19.10;40.30
7900;DHT22;3995;50.856;4.404;2023-05-18T10:55:50;19.10;40.00
7900;DHT22;3995;50.856;4.404;2023-05-18T10:58:20;19.20;39.80
7900;DHT22;3995;50.856;4.404;2023-05-18T11:00:49;19.30;40.00
7900;DHT22;3995;50.856;4.404;2023-05-18T11:03:19;19.30;39.90
7900;DHT22;3995;50.856;4.404;2023-05-18T11:05:50;19.40;39.70
7900;DHT22;3995;50.856;4.404;2023-05-18T11:08:25;19.50;39.70
7900;DHT22;3995;50.856;4.404;2023-05-18T11:10:59;19.60;39.10
7900;DHT22;3995;50.856;4.404;2023-05-18T11:13:30;19.70;38.90
7900;DHT22;3995;50.856;4.404;2023-05-18T11:16:05;19.70;38.70
7900;DHT22;3995;50.856;4.404;2023-05-18T11:18:41;19.80;38.70
7900;DHT22;3995;50.856;4.404;2023-05-18T11:21:30;19.90;38.80
7900;DHT22;3995;50.856;4.404;2023-05-18T11:24:19;19.90;38.50
7900;DHT22;3995;50.856;4.404;2023-05-18T11:26:48;19.90;38.60
7900;DHT22;3995;50.856;4.404;2023-05-18T11:29:18;19.90;38.70
7900;DHT22;3995;50.856;4.404;2023-05-18T11:31:48;20.00;38.70
7900;DHT22;3995;50.856;4.404;2023-05-18T11:34:40;20.10;38.70
7900;DHT22;3995;50.856;4.404;2023-05-18T11:37:12;20.20;38.60
7900;DHT22;3995;50.856;4.404;2023-05-18T11:39:40;20.30;38.80
7900;DHT22;3995;50.856;4.404;2023-05-18T11:42:09;20.40;38.70
7900;DHT22;3995;50.856;4.404;2023-05-18T11:44:38;20.50;38.20
7900;DHT22;3995;50.856;4.404;2023-05-18T11:47:08;20.60;38.00
7900;DHT22;3995;50.856;4.404;2023-05-18T11:49:37;20.70;38.00
7900;DHT22;3995;50.856;4.404;2023-05-18T11:52:13;20.90;38.00
7900;DHT22;3995;50.856;4.404;2023-05-18T11:54:44;21.00;37.80
7900;DHT22;3995;50.856;4.404;2023-05-18T11:57:13;21.20;37.60
7900;DHT22;3995;50.856;4.404;2023-05-18T11:59:44;21.40;37.20
7900;DHT22;3995;50.856;4.404;2023-05-18T12:02:18;21.60;36.40
7900;DHT22;3995;50.856;4.404;2023-05-18T12:04:48;21.70;35.40
7900;DHT22;3995;50.856;4.404;2023-05-18T12:07:17;21.80;35.30
7900;DHT22;3995;50.856;4.404;2023-05-18T12:09:46;21.80;35.30
7900;DHT22;3995;50.856;4.404;2023-05-18T12:12:14;21.90;34.90
7900;DHT22;3995;50.856;4.404;2023-05-18T12:14:51;22.00;34.60
7900;DHT22;3995;50.856;4.404;2023-05-18T12:17:19;22.00;34.80
7900;DHT22;3995;50.856;4.404;2023-05-18T12:19:48;22.10;34.50
7900;DHT22;3995;50.856;4.404;2023-05-18T12:22:16;22.20;35.30
7900;DHT22;3995;50.856;4.404;2023-05-18T12:24:43;22.10;34.60
7900;DHT22;3995;50.856;4.404;2023-05-18T12:27:11;22.20;34.50
7900;DHT22;3995;50.856;4.404;2023-05-18T12:29:39;22.30;34.60
7900;DHT22;3995;50.856;4.404;2023-05-18T12:32:10;22.40;35.00
7900;DHT22;3995;50.856;4.404;2023-05-18T12:34:38;22.40;35.10
7900;DHT22;3995;50.856;4.404;2023-05-18T12:37:06;22.50;35.10
7900;DHT22;3995;50.856;4.404;2023-05-18T12:39:34;22.60;35.10
7900;DHT22;3995;50.856;4.404;2023-05-18T12:42:12;22.80;35.10
7900;DHT22;3995;50.856;4.404;2023-05-18T12:44:40;23.00;35.00
7900;DHT22;3995;50.856;4.404;2023-05-18T12:47:11;23.20;34.20
7900;DHT22;3995;50.856;4.404;2023-05-18T12:49:40;23.30;33.90
7900;DHT22;3995;50.856;4.404;2023-05-18T12:52:08;23.40;33.30
7900;DHT22;3995;50.856;4.404;2023-05-18T12:54:46;23.40;33.10
7900;DHT22;3995;50.856;4.404;2023-05-18T12:57:15;23.40;33.40
7900;DHT22;3995;50.856;4.404;2023-05-18T12:59:46;23.40;33.80
7900;DHT22;3995;50.856;4.404;2023-05-18T13:02:27;23.30;33.70
7900;DHT22;3995;50.856;4.404;2023-05-18T13:05:02;23.30;34.20
7900;DHT22;3995;50.856;4.404;2023-05-18T13:07:30;23.30;34.10
7900;DHT22;3995;50.856;4.404;2023-05-18T13:10:04;23.30;33.90
7900;DHT22;3995;50.856;4.404;2023-05-18T13:12:38;23.30;33.60
7900;DHT22;3995;50.856;4.404;2023-05-18T13:15:10;23.40;33.30
7900;DHT22;3995;50.856;4.404;2023-05-18T13:17:47;23.40;33.20
7900;DHT22;3995;50.856;4.404;2023-05-18T13:20:16;23.40;33.10
7900;DHT22;3995;50.856;4.404;2023-05-18T13:22:44;23.50;33.20
7900;DHT22;3995;50.856;4.404;2023-05-18T13:25:11;23.50;33.20
7900;DHT22;3995;50.856;4.404;2023-05-18T13:27:38;23.60;33.50
7900;DHT22;3995;50.856;4.404;2023-05-18T13:30:07;23.60;33.30
7900;DHT22;3995;50.856;4.404;2023-05-18T13:32:34;23.60;33.10
7900;DHT22;3995;50.856;4.404;2023-05-18T13:35:04;23.50;32.90
7900;DHT22;3995;50.856;4.404;2023-05-18T13:37:32;23.40;32.70
7900;DHT22;3995;50.856;4.404;2023-05-18T13:40:00;23.30;32.70
7900;DHT22;3995;50.856;4.404;2023-05-18T13:42:27;23.10;32.80
7900;DHT22;3995;50.856;4.404;2023-05-18T13:44:54;22.90;33.00
7900;DHT22;3995;50.856;4.404;2023-05-18T13:47:22;22.70;33.40
7900;DHT22;3995;50.856;4.404;2023-05-18T13:49:49;22.60;33.60
7900;DHT22;3995;50.856;4.404;2023-05-18T13:52:18;22.40;33.50
7900;DHT22;3995;50.856;4.404;2023-05-18T13:54:46;22.30;33.50
7900;DHT22;3995;50.856;4.404;2023-05-18T13:57:14;22.10;33.20
7900;DHT22;3995;50.856;4.404;2023-05-18T13:59:41;22.00;32.90
7900;DHT22;3995;50.856;4.404;2023-05-18T14:02:08;21.90;32.90
7900;DHT22;3995;50.856;4.404;2023-05-18T14:04:36;21.80;33.20
7900;DHT22;3995;50.856;4.404;2023-05-18T14:07:04;21.70;33.50
7900;DHT22;3995;50.856;4.404;2023-05-18T14:09:35;21.60;33.70
7900;DHT22;3995;50.856;4.404;2023-05-18T14:12:04;21.50;34.10
7900;DHT22;3995;50.856;4.404;2023-05-18T14:14:32;21.50;34.20
7900;DHT22;3995;50.856;4.404;2023-05-18T14:16:59;21.40;34.40
7900;DHT22;3995;50.856;4.404;2023-05-18T14:19:27;21.40;34.60
7900;DHT22;3995;50.856;4.404;2023-05-18T14:21:55;21.40;34.90
7900;DHT22;3995;50.856;4.404;2023-05-18T14:24:23;21.40;35.00
7900;DHT22;3995;50.856;4.404;2023-05-18T14:26:52;21.40;34.80
7900;DHT22;3995;50.856;4.404;2023-05-18T14:29:19;21.50;34.60
7900;DHT22;3995;50.856;4.404;2023-05-18T14:31:47;21.60;34.40
7900;DHT22;3995;50.856;4.404;2023-05-18T14:34:15;21.70;34.30
7900;DHT22;3995;50.856;4.404;2023-05-18T14:36:42;21.80;34.20
7900;DHT22;3995;50.856;4.404;2023-05-18T14:39:10;21.90;34.10
7900;DHT22;3995;50.856;4.404;2023-05-18T14:41:38;21.90;33.90
7900;DHT22;3995;50.856;4.404;2023-05-18T14:44:07;21.90;33.70
7900;DHT22;3995;50.856;4.404;2023-05-18T14:46:35;21.90;33.50
7900;DHT22;3995;50.856;4.404;2023-05-18T14:49:03;21.90;33.70
7900;DHT22;3995;50.856;4.404;2023-05-18T14:51:31;22.00;33.90
7900;DHT22;3995;50.856;4.404;2023-05-18T14:53:58;22.00;34.00
7900;DHT22;3995;50.856;4.404;2023-05-18T14:56:25;22.10;34.40
7900;DHT22;3995;50.856;4.404;2023-05-18T14:58:53;22.10;34.50
7900;DHT22;3995;50.856;4.404;2023-05-18T15:01:22;22.20;34.30
7900;DHT22;3995;50.856;4.404;2023-05-18T15:03:49;22.20;34.20
7900;DHT22;3995;50.856;4.404;2023-05-18T15:06:17;22.20;34.20
7900;DHT22;3995;50.856;4.404;2023-05-18T15:08:44;22.10;34.30
7900;DHT22;3995;50.856;4.404;2023-05-18T15:11:12;22.10;34.40
7900;DHT22;3995;50.856;4.404;2023-05-18T15:13:39;22.10;34.80
7900;DHT22;3995;50.856;4.404;2023-05-18T15:16:09;22.00;34.80
7900;DHT22;3995;50.856;4.404;2023-05-18T15:18:38;22.00;35.10
7900;DHT22;3995;50.856;4.404;2023-05-18T15:21:05;21.90;35.10
7900;DHT22;3995;50.856;4.404;2023-05-18T15:23:33;21.90;35.20
7900;DHT22;3995;50.856;4.404;2023-05-18T15:26:00;21.80;35.00
7900;DHT22;3995;50.856;4.404;2023-05-18T15:28:27;21.70;35.10
7900;DHT22;3995;50.856;4.404;2023-05-18T15:30:54;21.70;35.10
7900;DHT22;3995;50.856;4.404;2023-05-18T15:33:22;21.60;35.00
7900;DHT22;3995;50.856;4.404;2023-05-18T15:35:51;21.50;34.70
7900;DHT22;3995;50.856;4.404;2023-05-18T15:38:17;21.50;34.60
7900;DHT22;3995;50.856;4.404;2023-05-18T15:40:45;21.40;34.50
7900;DHT22;3995;50.856;4.404;2023-05-18T15:43:12;21.40;34.60
7900;DHT22;3995;50.856;4.404;2023-05-18T15:45:40;21.40;34.70
7900;DHT22;3995;50.856;4.404;2023-05-18T15:48:07;21.30;34.80
7900;DHT22;3995;50.856;4.404;2023-05-18T15:50:35;21.30;35.10
7900;DHT22;3995;50.856;4.404;2023-05-18T15:53:04;21.20;35.00
7900;DHT22;3995;50.856;4.404;2023-05-18T15:55:31;21.20;34.80
7900;DHT22;3995;50.856;4.404;2023-05-18T15:57:59;21.20;34.60
7900;DHT22;3995;50.856;4.404;2023-05-18T16:00:27;21.10;34.50
7900;DHT22;3995;50.856;4.404;2023-05-18T16:02:56;21.10;34.70
7900;DHT22;3995;50.856;4.404;2023-05-18T16:05:24;21.10;34.50
7900;DHT22;3995;50.856;4.404;2023-05-18T16:07:51;21.00;34.30
7900;DHT22;3995;50.856;4.404;2023-05-18T16:10:21;21.00;34.20
7900;DHT22;3995;50.856;4.404;2023-05-18T16:12:48;21.00;34.30
7900;DHT22;3995;50.856;4.404;2023-05-18T16:15:16;21.00;34.50